sensor_id;sensor_type;location;lat;lon;timestamp;P1;durP1;ratioP1;P2;durP2;ratioP2
2023;SDS011;1016;48.770;9.154;2022-11-13T00:00:02;28.97;;;11.97;;
2023;SDS011;1016;48.770;9.154;2022-11-13T00:02:31;25.90;;;10.80;;
2023;SDS011;1016;48.770;9.154;2022-11-13T00:04:59;26.77;;;11.07;;
2023;SDS011;1016;48.770;9.154;2022-11-13T00:07:24;28.73;;;11.30;;
2023;SDS011;1016;48.770;9.154;2022-11-13T00:09:51;27.23;;;11.20;;
2023;SDS011;1016;48.770;9.154;2022-11-13T00:12:18;27.37;;;11.13;;
2023;SDS011;1016;48.770;9.154;2022-11-13T00:14:43;28.83;;;12.00;;
2023;SDS011;1016;48.770;9.154;2022-11-13T00:17:09;27.40;;;10.47;;
2023;SDS011;1016;48.770;9.154;2022-11-13T00:19:34;27.67;;;11.40;;
2023;SDS011;1016;48.770;9.154;2022-11-13T00:22:00;26.20;;;10.80;;
2023;SDS011;1016;48.770;9.154;2022-11-13T00:24:26;29.83;;;11.13;;
2023;SDS011;1016;48.770;9.154;2022-11-13T00:26:51;25.63;;;10.93;;
2023;SDS011;1016;48.770;9.154;2022-11-13T00:29:17;26.47;;;11.50;;
2023;SDS011;1016;48.770;9.154;2022-11-13T00:31:42;27.03;;;11.60;;
2023;SDS011;1016;48.770;9.154;2022-11-13T00:34:09;26.73;;;11.50;;
2023;SDS011;1016;48.770;9.154;2022-11-13T00:36:35;27.20;;;11.83;;
2023;SDS011;1016;48.770;9.154;2022-11-13T00:39:00;27.30;;;12.73;;
2023;SDS011;1016;48.770;9.154;2022-11-13T00:41:26;28.87;;;12.27;;
2023;SDS011;1016;48.770;9.154;2022-11-13T00:43:51;29.33;;;12.60;;
2023;SDS011;1016;48.770;9.154;2022-11-13T00:46:17;30.73;;;13.43;;
2023;SDS011;1016;48.770;9.154;2022-11-13T00:48:43;30.73;;;14.60;;
2023;SDS011;1016;48.770;9.154;2022-11-13T00:51:08;30.27;;;14.17;;
2023;SDS011;1016;48.770;9.154;2022-11-13T00:53:34;30.17;;;14.60;;
2023;SDS011;1016;48.770;9.154;2022-11-13T00:55:59;32.93;;;14.13;;
2023;SDS011;1016;48.770;9.154;2022-11-13T00:58:25;29.23;;;13.60;;
2023;SDS011;1016;48.770;9.154;2022-11-13T01:00:51;29.10;;;13.30;;
2023;SDS011;1016;48.770;9.154;2022-11-13T01:03:17;31.73;;;13.67;;
2023;SDS011;1016;48.770;9.154;2022-11-13T01:05:43;28.97;;;13.27;;
2023;SDS011;1016;48.770;9.154;2022-11-13T01:08:10;29.90;;;13.67;;
2023;SDS011;1016;48.770;9.154;2022-11-13T01:10:39;30.23;;;13.60;;
2023;SDS011;1016;48.770;9.154;2022-11-13T01:13:07;28.47;;;12.97;;
2023;SDS011;1016;48.770;9.154;2022-11-13T01:15:32;27.23;;;12.40;;
2023;SDS011;1016;48.770;9.154;2022-11-13T01:17:58;29.67;;;12.93;;
2023;SDS011;1016;48.770;9.154;2022-11-13T01:20:24;32.83;;;13.43;;
2023;SDS011;1016;48.770;9.154;2022-11-13T01:22:50;33.40;;;14.30;;
2023;SDS011;1016;48.770;9.154;2022-11-13T01:25:15;28.67;;;13.40;;
2023;SDS011;1016;48.770;9.154;2022-11-13T01:27:42;28.43;;;12.57;;
2023;SDS011;1016;48.770;9.154;2022-11-13T01:30:08;28.60;;;12.77;;
2023;SDS011;1016;48.770;9.154;2022-11-13T01:32:34;28.40;;;12.80;;
2023;SDS011;1016;48.770;9.154;2022-11-13T01:34:59;31.30;;;11.93;;
2023;SDS011;1016;48.770;9.154;2022-11-13T01:37:25;28.60;;;12.20;;
2023;SDS011;1016;48.770;9.154;2022-11-13T01:39:50;28.20;;;12.50;;
2023;SDS011;1016;48.770;9.154;2022-11-13T01:42:16;27.27;;;11.77;;
2023;SDS011;1016;48.770;9.154;2022-11-13T01:44:51;26.00;;;10.60;;
2023;SDS011;1016;48.770;9.154;2022-11-13T01:47:22;28.40;;;11.27;;
2023;SDS011;1016;48.770;9.154;2022-11-13T01:49:55;27.90;;;10.90;;
2023;SDS011;1016;48.770;9.154;2022-11-13T01:52:28;27.40;;;11.60;;
2023;SDS011;1016;48.770;9.154;2022-11-13T01:55:00;28.80;;;11.40;;
2023;SDS011;1016;48.770;9.154;2022-11-13T01:57:30;28.10;;;12.70;;
2023;SDS011;1016;48.770;9.154;2022-11-13T01:59:58;29.30;;;12.97;;
2023;SDS011;1016;48.770;9.154;2022-11-13T02:02:27;29.93;;;12.27;;
2023;SDS011;1016;48.770;9.154;2022-11-13T02:04:52;28.37;;;12.73;;
2023;SDS011;1016;48.770;9.154;2022-11-13T02:07:19;29.20;;;13.00;;
2023;SDS011;1016;48.770;9.154;2022-11-13T02:09:47;27.93;;;12.00;;
2023;SDS011;1016;48.770;9.154;2022-11-13T02:12:16;30.40;;;12.43;;
2023;SDS011;1016;48.770;9.154;2022-11-13T02:14:46;27.50;;;12.60;;
2023;SDS011;1016;48.770;9.154;2022-11-13T02:17:17;30.47;;;12.80;;
2023;SDS011;1016;48.770;9.154;2022-11-13T02:19:48;30.47;;;12.90;;
2023;SDS011;1016;48.770;9.154;2022-11-13T02:22:19;28.27;;;13.00;;
2023;SDS011;1016;48.770;9.154;2022-11-13T02:24:49;29.17;;;13.53;;
2023;SDS011;1016;48.770;9.154;2022-11-13T02:30:25;28.30;;;12.03;;
2023;SDS011;1016;48.770;9.154;2022-11-13T02:32:52;28.63;;;11.70;;
2023;SDS011;1016;48.770;9.154;2022-11-13T02:35:20;28.73;;;11.47;;
2023;SDS011;1016;48.770;9.154;2022-11-13T02:37:48;36.10;;;17.57;;
2023;SDS011;1016;48.770;9.154;2022-11-13T02:40:14;27.40;;;11.50;;
2023;SDS011;1016;48.770;9.154;2022-11-13T02:42:40;27.93;;;11.80;;
2023;SDS011;1016;48.770;9.154;2022-11-13T02:45:06;26.90;;;10.93;;
2023;SDS011;1016;48.770;9.154;2022-11-13T02:47:32;28.87;;;12.17;;
2023;SDS011;1016;48.770;9.154;2022-11-13T02:49:58;30.97;;;12.20;;
2023;SDS011;1016;48.770;9.154;2022-11-13T02:52:23;25.93;;;11.57;;
2023;SDS011;1016;48.770;9.154;2022-11-13T02:54:49;30.10;;;11.80;;
2023;SDS011;1016;48.770;9.154;2022-11-13T02:57:15;27.23;;;12.00;;
2023;SDS011;1016;48.770;9.154;2022-11-13T02:59:40;28.90;;;11.40;;
2023;SDS011;1016;48.770;9.154;2022-11-13T03:02:06;26.50;;;10.93;;
2023;SDS011;1016;48.770;9.154;2022-11-13T03:04:31;28.10;;;11.70;;
2023;SDS011;1016;48.770;9.154;2022-11-13T03:06:57;28.60;;;12.37;;
2023;SDS011;1016;48.770;9.154;2022-11-13T03:09:22;31.30;;;11.30;;
2023;SDS011;1016;48.770;9.154;2022-11-13T03:11:48;26.33;;;11.47;;
2023;SDS011;1016;48.770;9.154;2022-11-13T03:14:14;32.27;;;12.77;;
2023;SDS011;1016;48.770;9.154;2022-11-13T03:16:39;28.70;;;12.20;;
2023;SDS011;1016;48.770;9.154;2022-11-13T03:19:05;30.10;;;13.97;;
2023;SDS011;1016;48.770;9.154;2022-11-13T03:21:30;28.90;;;12.63;;
2023;SDS011;1016;48.770;9.154;2022-11-13T03:23:56;31.20;;;12.90;;
2023;SDS011;1016;48.770;9.154;2022-11-13T03:26:22;30.53;;;12.60;;
2023;SDS011;1016;48.770;9.154;2022-11-13T03:28:47;31.20;;;13.27;;
2023;SDS011;1016;48.770;9.154;2022-11-13T03:31:13;30.83;;;13.87;;
2023;SDS011;1016;48.770;9.154;2022-11-13T03:33:39;31.50;;;15.40;;
2023;SDS011;1016;48.770;9.154;2022-11-13T03:36:05;35.57;;;15.67;;
2023;SDS011;1016;48.770;9.154;2022-11-13T03:38:31;32.50;;;15.00;;
2023;SDS011;1016;48.770;9.154;2022-11-13T03:40:57;29.13;;;13.10;;
2023;SDS011;1016;48.770;9.154;2022-11-13T03:43:23;32.33;;;13.50;;
2023;SDS011;1016;48.770;9.154;2022-11-13T03:45:48;30.00;;;13.40;;
2023;SDS011;1016;48.770;9.154;2022-11-13T03:48:14;29.03;;;14.10;;
2023;SDS011;1016;48.770;9.154;2022-11-13T03:50:41;32.23;;;14.23;;
2023;SDS011;1016;48.770;9.154;2022-11-13T03:53:08;34.97;;;14.87;;
2023;SDS011;1016;48.770;9.154;2022-11-13T03:55:34;33.00;;;15.10;;
2023;SDS011;1016;48.770;9.154;2022-11-13T03:57:59;34.93;;;17.30;;
2023;SDS011;1016;48.770;9.154;2022-11-13T04:00:25;33.67;;;14.87;;
2023;SDS011;1016;48.770;9.154;2022-11-13T04:02:50;32.30;;;14.73;;
2023;SDS011;1016;48.770;9.154;2022-11-13T04:05:16;37.93;;;17.37;;
2023;SDS011;1016;48.770;9.154;2022-11-13T04:07:42;34.37;;;16.13;;
2023;SDS011;1016;48.770;9.154;2022-11-13T04:10:07;35.57;;;16.20;;
2023;SDS011;1016;48.770;9.154;2022-11-13T04:12:33;35.67;;;16.17;;
2023;SDS011;1016;48.770;9.154;2022-11-13T04:14:58;40.40;;;17.47;;
2023;SDS011;1016;48.770;9.154;2022-11-13T04:17:24;34.23;;;17.40;;
2023;SDS011;1016;48.770;9.154;2022-11-13T04:19:49;42.73;;;17.90;;
2023;SDS011;1016;48.770;9.154;2022-11-13T04:22:15;36.77;;;16.90;;
2023;SDS011;1016;48.770;9.154;2022-11-13T04:24:40;45.57;;;17.27;;
2023;SDS011;1016;48.770;9.154;2022-11-13T04:27:06;34.80;;;16.60;;
2023;SDS011;1016;48.770;9.154;2022-11-13T04:29:31;34.43;;;16.40;;
2023;SDS011;1016;48.770;9.154;2022-11-13T04:31:56;37.90;;;17.57;;
2023;SDS011;1016;48.770;9.154;2022-11-13T04:34:22;37.17;;;17.73;;
2023;SDS011;1016;48.770;9.154;2022-11-13T04:36:47;42.67;;;17.10;;
2023;SDS011;1016;48.770;9.154;2022-11-13T04:39:13;40.43;;;17.43;;
2023;SDS011;1016;48.770;9.154;2022-11-13T04:41:38;36.30;;;16.90;;
2023;SDS011;1016;48.770;9.154;2022-11-13T04:44:22;47.43;;;17.17;;
2023;SDS011;1016;48.770;9.154;2022-11-13T04:46:48;35.57;;;16.43;;
2023;SDS011;1016;48.770;9.154;2022-11-13T04:49:13;42.97;;;17.30;;
2023;SDS011;1016;48.770;9.154;2022-11-13T04:51:39;42.90;;;16.90;;
2023;SDS011;1016;48.770;9.154;2022-11-13T04:54:04;39.33;;;15.90;;
2023;SDS011;1016;48.770;9.154;2022-11-13T04:56:30;39.63;;;14.40;;
2023;SDS011;1016;48.770;9.154;2022-11-13T04:58:56;41.30;;;15.17;;
2023;SDS011;1016;48.770;9.154;2022-11-13T05:01:21;36.30;;;15.00;;
2023;SDS011;1016;48.770;9.154;2022-11-13T05:03:47;47.80;;;16.00;;
2023;SDS011;1016;48.770;9.154;2022-11-13T05:06:12;50.63;;;17.50;;
2023;SDS011;1016;48.770;9.154;2022-11-13T05:08:38;34.43;;;16.13;;
2023;SDS011;1016;48.770;9.154;2022-11-13T05:11:03;43.47;;;18.13;;
2023;SDS011;1016;48.770;9.154;2022-11-13T05:13:30;39.20;;;16.30;;
2023;SDS011;1016;48.770;9.154;2022-11-13T05:16:03;30.87;;;14.47;;
2023;SDS011;1016;48.770;9.154;2022-11-13T05:18:30;35.73;;;15.60;;
2023;SDS011;1016;48.770;9.154;2022-11-13T05:20:56;33.27;;;15.37;;
2023;SDS011;1016;48.770;9.154;2022-11-13T05:23:22;40.10;;;16.60;;
2023;SDS011;1016;48.770;9.154;2022-11-13T05:25:47;33.30;;;14.50;;
2023;SDS011;1016;48.770;9.154;2022-11-13T05:28:13;31.23;;;13.53;;
2023;SDS011;1016;48.770;9.154;2022-11-13T05:30:39;32.90;;;14.40;;
2023;SDS011;1016;48.770;9.154;2022-11-13T05:33:04;31.50;;;13.97;;
2023;SDS011;1016;48.770;9.154;2022-11-13T05:35:30;32.07;;;14.33;;
2023;SDS011;1016;48.770;9.154;2022-11-13T05:37:58;30.70;;;13.77;;
2023;SDS011;1016;48.770;9.154;2022-11-13T05:40:25;32.27;;;14.00;;
2023;SDS011;1016;48.770;9.154;2022-11-13T05:42:51;52.47;;;14.60;;
2023;SDS011;1016;48.770;9.154;2022-11-13T05:45:17;32.40;;;14.30;;
2023;SDS011;1016;48.770;9.154;2022-11-13T05:47:43;32.20;;;14.83;;
2023;SDS011;1016;48.770;9.154;2022-11-13T05:50:08;31.47;;;13.97;;
2023;SDS011;1016;48.770;9.154;2022-11-13T05:52:34;31.10;;;14.27;;
2023;SDS011;1016;48.770;9.154;2022-11-13T05:54:59;32.93;;;14.17;;
2023;SDS011;1016;48.770;9.154;2022-11-13T05:57:25;32.70;;;14.77;;
2023;SDS011;1016;48.770;9.154;2022-11-13T05:59:50;32.10;;;14.10;;
2023;SDS011;1016;48.770;9.154;2022-11-13T06:02:16;31.50;;;13.77;;
2023;SDS011;1016;48.770;9.154;2022-11-13T06:04:41;33.10;;;14.80;;
2023;SDS011;1016;48.770;9.154;2022-11-13T06:07:07;33.67;;;14.07;;
2023;SDS011;1016;48.770;9.154;2022-11-13T06:09:32;32.93;;;15.07;;
2023;SDS011;1016;48.770;9.154;2022-11-13T06:11:58;32.27;;;13.83;;
2023;SDS011;1016;48.770;9.154;2022-11-13T06:14:23;35.47;;;14.57;;
2023;SDS011;1016;48.770;9.154;2022-11-13T06:16:49;35.53;;;15.60;;
2023;SDS011;1016;48.770;9.154;2022-11-13T06:19:15;29.47;;;13.70;;
2023;SDS011;1016;48.770;9.154;2022-11-13T06:21:41;28.10;;;12.40;;
2023;SDS011;1016;48.770;9.154;2022-11-13T06:24:07;33.40;;;13.10;;
2023;SDS011;1016;48.770;9.154;2022-11-13T06:26:35;33.50;;;15.40;;
2023;SDS011;1016;48.770;9.154;2022-11-13T06:29:01;32.80;;;14.73;;
2023;SDS011;1016;48.770;9.154;2022-11-13T06:31:29;31.80;;;15.30;;
2023;SDS011;1016;48.770;9.154;2022-11-13T06:33:57;31.37;;;13.63;;
2023;SDS011;1016;48.770;9.154;2022-11-13T06:36:24;32.73;;;14.90;;
2023;SDS011;1016;48.770;9.154;2022-11-13T06:38:55;26.83;;;11.37;;
2023;SDS011;1016;48.770;9.154;2022-11-13T06:41:22;27.80;;;11.73;;
2023;SDS011;1016;48.770;9.154;2022-11-13T06:43:48;26.20;;;11.53;;
2023;SDS011;1016;48.770;9.154;2022-11-13T06:46:18;26.27;;;10.97;;
2023;SDS011;1016;48.770;9.154;2022-11-13T06:48:45;25.97;;;10.63;;
2023;SDS011;1016;48.770;9.154;2022-11-13T06:51:13;24.50;;;9.20;;
2023;SDS011;1016;48.770;9.154;2022-11-13T06:53:43;24.67;;;9.80;;
2023;SDS011;1016;48.770;9.154;2022-11-13T06:56:09;24.17;;;9.17;;
2023;SDS011;1016;48.770;9.154;2022-11-13T06:58:36;24.93;;;9.37;;
2023;SDS011;1016;48.770;9.154;2022-11-13T07:01:06;24.10;;;9.30;;
2023;SDS011;1016;48.770;9.154;2022-11-13T07:03:32;24.27;;;9.00;;
2023;SDS011;1016;48.770;9.154;2022-11-13T07:05:59;24.70;;;9.50;;
2023;SDS011;1016;48.770;9.154;2022-11-13T07:08:29;25.23;;;9.50;;
2023;SDS011;1016;48.770;9.154;2022-11-13T07:10:55;24.00;;;9.57;;
2023;SDS011;1016;48.770;9.154;2022-11-13T07:13:21;23.97;;;9.13;;
2023;SDS011;1016;48.770;9.154;2022-11-13T07:15:48;26.07;;;9.57;;
2023;SDS011;1016;48.770;9.154;2022-11-13T07:18:14;23.70;;;9.10;;
2023;SDS011;1016;48.770;9.154;2022-11-13T07:20:39;23.47;;;8.90;;
2023;SDS011;1016;48.770;9.154;2022-11-13T07:23:05;25.10;;;9.57;;
2023;SDS011;1016;48.770;9.154;2022-11-13T07:25:31;23.93;;;8.70;;
2023;SDS011;1016;48.770;9.154;2022-11-13T07:27:57;23.43;;;8.97;;
2023;SDS011;1016;48.770;9.154;2022-11-13T07:30:23;25.90;;;9.80;;
2023;SDS011;1016;48.770;9.154;2022-11-13T07:32:49;23.43;;;8.90;;
2023;SDS011;1016;48.770;9.154;2022-11-13T07:35:14;23.77;;;9.17;;
2023;SDS011;1016;48.770;9.154;2022-11-13T07:37:40;24.03;;;9.20;;
2023;SDS011;1016;48.770;9.154;2022-11-13T07:40:07;23.70;;;8.90;;
2023;SDS011;1016;48.770;9.154;2022-11-13T07:42:33;23.37;;;8.53;;
2023;SDS011;1016;48.770;9.154;2022-11-13T07:44:58;24.50;;;8.57;;
2023;SDS011;1016;48.770;9.154;2022-11-13T07:47:24;22.70;;;7.50;;
2023;SDS011;1016;48.770;9.154;2022-11-13T07:49:49;23.03;;;8.50;;
2023;SDS011;1016;48.770;9.154;2022-11-13T07:52:15;22.97;;;8.77;;
2023;SDS011;1016;48.770;9.154;2022-11-13T07:54:40;22.90;;;8.73;;
2023;SDS011;1016;48.770;9.154;2022-11-13T07:57:06;30.30;;;13.50;;
2023;SDS011;1016;48.770;9.154;2022-11-13T07:59:32;22.40;;;8.27;;
2023;SDS011;1016;48.770;9.154;2022-11-13T08:01:57;23.17;;;8.53;;
2023;SDS011;1016;48.770;9.154;2022-11-13T08:04:23;23.77;;;8.40;;
2023;SDS011;1016;48.770;9.154;2022-11-13T08:06:49;23.07;;;8.60;;
2023;SDS011;1016;48.770;9.154;2022-11-13T08:09:14;23.40;;;8.80;;
2023;SDS011;1016;48.770;9.154;2022-11-13T08:11:40;24.40;;;8.50;;
2023;SDS011;1016;48.770;9.154;2022-11-13T08:14:05;24.70;;;8.60;;
2023;SDS011;1016;48.770;9.154;2022-11-13T08:16:31;24.03;;;8.90;;
2023;SDS011;1016;48.770;9.154;2022-11-13T08:18:56;24.07;;;8.37;;
2023;SDS011;1016;48.770;9.154;2022-11-13T08:21:22;24.17;;;9.30;;
2023;SDS011;1016;48.770;9.154;2022-11-13T08:23:48;23.50;;;8.23;;
2023;SDS011;1016;48.770;9.154;2022-11-13T08:26:14;24.30;;;9.27;;
2023;SDS011;1016;48.770;9.154;2022-11-13T08:28:40;25.17;;;9.53;;
2023;SDS011;1016;48.770;9.154;2022-11-13T08:31:08;22.20;;;8.40;;
2023;SDS011;1016;48.770;9.154;2022-11-13T08:33:36;24.70;;;9.33;;
2023;SDS011;1016;48.770;9.154;2022-11-13T08:36:02;23.97;;;9.80;;
2023;SDS011;1016;48.770;9.154;2022-11-13T08:38:27;24.92;;;10.40;;
2023;SDS011;1016;48.770;9.154;2022-11-13T08:40:59;23.98;;;9.80;;
2023;SDS011;1016;48.770;9.154;2022-11-13T08:43:26;23.90;;;10.13;;
2023;SDS011;1016;48.770;9.154;2022-11-13T08:45:51;23.47;;;9.90;;
2023;SDS011;1016;48.770;9.154;2022-11-13T08:48:18;23.53;;;9.37;;
2023;SDS011;1016;48.770;9.154;2022-11-13T08:50:44;23.90;;;8.50;;
2023;SDS011;1016;48.770;9.154;2022-11-13T08:53:10;22.67;;;8.33;;
2023;SDS011;1016;48.770;9.154;2022-11-13T08:55:35;23.23;;;9.40;;
2023;SDS011;1016;48.770;9.154;2022-11-13T08:58:01;24.20;;;10.00;;
2023;SDS011;1016;48.770;9.154;2022-11-13T09:00:28;24.02;;;10.05;;
2023;SDS011;1016;48.770;9.154;2022-11-13T09:02:55;24.20;;;10.32;;
2023;SDS011;1016;48.770;9.154;2022-11-13T09:05:22;23.88;;;10.20;;
2023;SDS011;1016;48.770;9.154;2022-11-13T09:07:48;24.10;;;10.70;;
2023;SDS011;1016;48.770;9.154;2022-11-13T09:10:15;24.33;;;10.17;;
2023;SDS011;1016;48.770;9.154;2022-11-13T09:12:41;24.10;;;10.23;;
2023;SDS011;1016;48.770;9.154;2022-11-13T09:15:07;25.58;;;10.65;;
2023;SDS011;1016;48.770;9.154;2022-11-13T09:17:33;24.38;;;10.90;;
2023;SDS011;1016;48.770;9.154;2022-11-13T09:19:59;23.70;;;10.50;;
2023;SDS011;1016;48.770;9.154;2022-11-13T09:22:24;24.40;;;10.70;;
2023;SDS011;1016;48.770;9.154;2022-11-13T09:24:50;23.70;;;10.50;;
2023;SDS011;1016;48.770;9.154;2022-11-13T09:27:16;23.40;;;10.30;;
2023;SDS011;1016;48.770;9.154;2022-11-13T09:29:42;23.10;;;9.70;;
2023;SDS011;1016;48.770;9.154;2022-11-13T09:32:07;27.30;;;9.60;;
2023;SDS011;1016;48.770;9.154;2022-11-13T09:34:33;23.00;;;9.13;;
2023;SDS011;1016;48.770;9.154;2022-11-13T09:36:58;24.00;;;8.87;;
2023;SDS011;1016;48.770;9.154;2022-11-13T09:39:24;23.73;;;8.30;;
2023;SDS011;1016;48.770;9.154;2022-11-13T09:42:23;23.63;;;9.30;;
2023;SDS011;1016;48.770;9.154;2022-11-13T09:44:52;23.30;;;8.70;;
2023;SDS011;1016;48.770;9.154;2022-11-13T09:47:29;23.80;;;8.90;;
2023;SDS011;1016;48.770;9.154;2022-11-13T09:52:57;25.53;;;9.23;;
2023;SDS011;1016;48.770;9.154;2022-11-13T09:55:27;23.20;;;9.40;;
2023;SDS011;1016;48.770;9.154;2022-11-13T09:58:10;24.30;;;9.60;;
2023;SDS011;1016;48.770;9.154;2022-11-13T10:00:48;24.00;;;9.97;;
2023;SDS011;1016;48.770;9.154;2022-11-13T10:03:29;23.70;;;9.93;;
2023;SDS011;1016;48.770;9.154;2022-11-13T10:06:12;26.83;;;9.77;;
2023;SDS011;1016;48.770;9.154;2022-11-13T10:08:59;23.77;;;9.63;;
2023;SDS011;1016;48.770;9.154;2022-11-13T10:14:08;25.00;;;10.43;;
2023;SDS011;1016;48.770;9.154;2022-11-13T10:16:51;23.43;;;9.40;;
2023;SDS011;1016;48.770;9.154;2022-11-13T10:22:02;24.80;;;10.00;;
2023;SDS011;1016;48.770;9.154;2022-11-13T10:24:41;24.07;;;9.70;;
2023;SDS011;1016;48.770;9.154;2022-11-13T10:27:11;25.10;;;10.27;;
2023;SDS011;1016;48.770;9.154;2022-11-13T10:29:38;24.90;;;9.90;;
2023;SDS011;1016;48.770;9.154;2022-11-13T10:34:39;23.88;;;10.20;;
2023;SDS011;1016;48.770;9.154;2022-11-13T10:39:47;23.88;;;10.70;;
2023;SDS011;1016;48.770;9.154;2022-11-13T10:42:25;26.13;;;10.90;;
2023;SDS011;1016;48.770;9.154;2022-11-13T10:44:54;24.13;;;10.35;;
2023;SDS011;1016;48.770;9.154;2022-11-13T10:47:23;24.73;;;10.95;;
2023;SDS011;1016;48.770;9.154;2022-11-13T10:49:54;25.13;;;11.52;;
2023;SDS011;1016;48.770;9.154;2022-11-13T10:52:24;26.00;;;11.20;;
2023;SDS011;1016;48.770;9.154;2022-11-13T10:55:04;24.85;;;10.18;;
2023;SDS011;1016;48.770;9.154;2022-11-13T10:57:58;24.90;;;11.18;;
2023;SDS011;1016;48.770;9.154;2022-11-13T11:00:30;24.83;;;10.82;;
2023;SDS011;1016;48.770;9.154;2022-11-13T11:02:57;24.60;;;10.82;;
2023;SDS011;1016;48.770;9.154;2022-11-13T11:05:23;24.63;;;11.20;;
2023;SDS011;1016;48.770;9.154;2022-11-13T11:07:50;24.88;;;11.00;;
2023;SDS011;1016;48.770;9.154;2022-11-13T11:10:22;24.88;;;11.10;;
2023;SDS011;1016;48.770;9.154;2022-11-13T11:12:53;24.30;;;11.00;;
2023;SDS011;1016;48.770;9.154;2022-11-13T11:18:01;24.45;;;11.15;;
2023;SDS011;1016;48.770;9.154;2022-11-13T11:23:18;25.00;;;11.13;;
2023;SDS011;1016;48.770;9.154;2022-11-13T11:26:08;24.00;;;10.80;;
2023;SDS011;1016;48.770;9.154;2022-11-13T11:28:59;24.40;;;11.30;;
2023;SDS011;1016;48.770;9.154;2022-11-13T11:31:40;29.50;;;11.40;;
2023;SDS011;1016;48.770;9.154;2022-11-13T11:36:37;24.20;;;9.97;;
2023;SDS011;1016;48.770;9.154;2022-11-13T11:41:59;24.60;;;9.97;;
2023;SDS011;1016;48.770;9.154;2022-11-13T11:44:42;24.23;;;9.80;;
2023;SDS011;1016;48.770;9.154;2022-11-13T11:47:30;24.67;;;10.47;;
2023;SDS011;1016;48.770;9.154;2022-11-13T11:49:57;24.63;;;10.73;;
2023;SDS011;1016;48.770;9.154;2022-11-13T11:52:26;25.60;;;11.75;;
2023;SDS011;1016;48.770;9.154;2022-11-13T12:00:21;25.60;;;11.68;;
2023;SDS011;1016;48.770;9.154;2022-11-13T12:05:41;25.05;;;11.40;;
2023;SDS011;1016;48.770;9.154;2022-11-13T12:08:26;24.98;;;11.85;;
2023;SDS011;1016;48.770;9.154;2022-11-13T12:16:30;25.75;;;11.82;;
2023;SDS011;1016;48.770;9.154;2022-11-13T12:19:04;24.52;;;11.13;;
2023;SDS011;1016;48.770;9.154;2022-11-13T12:32:56;24.73;;;11.20;;
2023;SDS011;1016;48.770;9.154;2022-11-13T12:35:41;24.67;;;11.60;;
2023;SDS011;1016;48.770;9.154;2022-11-13T12:38:14;24.65;;;11.20;;
2023;SDS011;1016;48.770;9.154;2022-11-13T12:43:52;24.50;;;11.20;;
2023;SDS011;1016;48.770;9.154;2022-11-13T12:46:43;26.10;;;11.57;;
2023;SDS011;1016;48.770;9.154;2022-11-13T12:49:14;25.80;;;11.48;;
2023;SDS011;1016;48.770;9.154;2022-11-13T12:52:23;25.17;;;11.98;;
2023;SDS011;1016;48.770;9.154;2022-11-13T12:54:44;24.80;;;11.50;;
2023;SDS011;1016;48.770;9.154;2022-11-13T12:59:43;26.05;;;11.80;;
2023;SDS011;1016;48.770;9.154;2022-11-13T13:02:29;25.37;;;11.73;;
2023;SDS011;1016;48.770;9.154;2022-11-13T13:10:47;30.23;;;13.30;;
2023;SDS011;1016;48.770;9.154;2022-11-13T13:13:46;29.83;;;14.48;;
2023;SDS011;1016;48.770;9.154;2022-11-13T13:16:24;28.35;;;12.48;;
2023;SDS011;1016;48.770;9.154;2022-11-13T13:18:52;26.25;;;12.35;;
2023;SDS011;1016;48.770;9.154;2022-11-13T13:21:18;24.83;;;11.40;;
2023;SDS011;1016;48.770;9.154;2022-11-13T13:23:45;24.95;;;11.02;;
2023;SDS011;1016;48.770;9.154;2022-11-13T13:28:50;34.10;;;18.58;;
2023;SDS011;1016;48.770;9.154;2022-11-13T13:36:49;30.52;;;15.90;;
2023;SDS011;1016;48.770;9.154;2022-11-13T13:42:41;26.23;;;12.90;;
2023;SDS011;1016;48.770;9.154;2022-11-13T13:48:19;25.17;;;11.47;;
2023;SDS011;1016;48.770;9.154;2022-11-13T13:50:48;23.65;;;10.38;;
2023;SDS011;1016;48.770;9.154;2022-11-13T13:53:15;25.73;;;11.60;;
2023;SDS011;1016;48.770;9.154;2022-11-13T13:55:47;24.20;;;10.70;;
2023;SDS011;1016;48.770;9.154;2022-11-13T13:58:16;27.33;;;12.95;;
2023;SDS011;1016;48.770;9.154;2022-11-13T14:00:56;27.48;;;14.38;;
2023;SDS011;1016;48.770;9.154;2022-11-13T14:03:23;25.20;;;11.00;;
2023;SDS011;1016;48.770;9.154;2022-11-13T14:05:50;26.38;;;11.07;;
2023;SDS011;1016;48.770;9.154;2022-11-13T14:08:23;24.20;;;11.30;;
2023;SDS011;1016;48.770;9.154;2022-11-13T14:10:50;24.40;;;10.25;;
2023;SDS011;1016;48.770;9.154;2022-11-13T14:13:26;24.90;;;10.70;;
2023;SDS011;1016;48.770;9.154;2022-11-13T14:16:03;25.45;;;10.50;;
2023;SDS011;1016;48.770;9.154;2022-11-13T14:18:30;24.58;;;10.20;;
2023;SDS011;1016;48.770;9.154;2022-11-13T14:20:56;24.77;;;10.48;;
2023;SDS011;1016;48.770;9.154;2022-11-13T14:23:28;24.58;;;10.68;;
2023;SDS011;1016;48.770;9.154;2022-11-13T14:26:03;25.07;;;10.73;;
2023;SDS011;1016;48.770;9.154;2022-11-13T14:28:31;24.98;;;11.18;;
2023;SDS011;1016;48.770;9.154;2022-11-13T14:31:08;24.60;;;10.80;;
2023;SDS011;1016;48.770;9.154;2022-11-13T14:33:40;24.60;;;10.90;;
2023;SDS011;1016;48.770;9.154;2022-11-13T14:36:09;24.52;;;10.90;;
2023;SDS011;1016;48.770;9.154;2022-11-13T14:38:38;25.48;;;11.60;;
2023;SDS011;1016;48.770;9.154;2022-11-13T14:41:06;24.92;;;10.85;;
2023;SDS011;1016;48.770;9.154;2022-11-13T14:43:46;24.55;;;10.32;;
2023;SDS011;1016;48.770;9.154;2022-11-13T14:46:28;25.40;;;11.50;;
2023;SDS011;1016;48.770;9.154;2022-11-13T14:48:55;26.20;;;11.98;;
2023;SDS011;1016;48.770;9.154;2022-11-13T14:51:31;27.58;;;12.50;;
2023;SDS011;1016;48.770;9.154;2022-11-13T14:54:02;25.88;;;11.60;;
2023;SDS011;1016;48.770;9.154;2022-11-13T14:56:36;25.88;;;11.40;;
2023;SDS011;1016;48.770;9.154;2022-11-13T14:59:13;26.10;;;11.70;;
2023;SDS011;1016;48.770;9.154;2022-11-13T15:01:40;25.87;;;11.03;;
2023;SDS011;1016;48.770;9.154;2022-11-13T15:04:17;27.15;;;11.25;;
2023;SDS011;1016;48.770;9.154;2022-11-13T15:06:42;26.13;;;10.80;;
2023;SDS011;1016;48.770;9.154;2022-11-13T15:09:14;25.90;;;10.90;;
2023;SDS011;1016;48.770;9.154;2022-11-13T15:11:41;25.75;;;10.80;;
2023;SDS011;1016;48.770;9.154;2022-11-13T15:14:10;26.90;;;10.80;;
2023;SDS011;1016;48.770;9.154;2022-11-13T15:16:37;26.35;;;10.68;;
2023;SDS011;1016;48.770;9.154;2022-11-13T15:19:03;27.45;;;10.32;;
2023;SDS011;1016;48.770;9.154;2022-11-13T15:21:49;26.75;;;11.35;;
2023;SDS011;1016;48.770;9.154;2022-11-13T15:24:16;25.02;;;10.57;;
2023;SDS011;1016;48.770;9.154;2022-11-13T15:26:42;25.03;;;10.40;;
2023;SDS011;1016;48.770;9.154;2022-11-13T15:29:08;26.60;;;10.80;;
2023;SDS011;1016;48.770;9.154;2022-11-13T15:31:37;26.40;;;11.20;;
2023;SDS011;1016;48.770;9.154;2022-11-13T15:34:07;24.60;;;10.97;;
2023;SDS011;1016;48.770;9.154;2022-11-13T15:36:37;24.83;;;11.00;;
2023;SDS011;1016;48.770;9.154;2022-11-13T15:39:04;24.47;;;11.10;;
2023;SDS011;1016;48.770;9.154;2022-11-13T15:41:30;23.80;;;10.60;;
2023;SDS011;1016;48.770;9.154;2022-11-13T15:43:58;23.92;;;10.57;;
2023;SDS011;1016;48.770;9.154;2022-11-13T15:46:24;25.60;;;11.38;;
2023;SDS011;1016;48.770;9.154;2022-11-13T15:48:50;25.30;;;11.30;;
2023;SDS011;1016;48.770;9.154;2022-11-13T15:54:22;25.95;;;11.20;;
2023;SDS011;1016;48.770;9.154;2022-11-13T15:56:56;35.30;;;11.20;;
2023;SDS011;1016;48.770;9.154;2022-11-13T15:59:22;24.50;;;11.03;;
2023;SDS011;1016;48.770;9.154;2022-11-13T16:01:47;24.20;;;10.77;;
2023;SDS011;1016;48.770;9.154;2022-11-13T16:04:13;25.03;;;10.50;;
2023;SDS011;1016;48.770;9.154;2022-11-13T16:06:40;25.17;;;10.68;;
2023;SDS011;1016;48.770;9.154;2022-11-13T16:09:13;24.05;;;11.02;;
2023;SDS011;1016;48.770;9.154;2022-11-13T16:11:39;24.83;;;11.00;;
2023;SDS011;1016;48.770;9.154;2022-11-13T16:14:05;23.20;;;10.40;;
2023;SDS011;1016;48.770;9.154;2022-11-13T16:16:32;23.93;;;10.80;;
2023;SDS011;1016;48.770;9.154;2022-11-13T16:19:00;23.65;;;10.40;;